Time;durP1;ratioP1;P1;durP2;ratioP2;P2;SDS_P1;SDS_P2;PMS_P1;PMS_P2;Temp;Humidity;BMP_temperature;BMP_pressure;BME280_temperature;BME280_humidity;BME280_pressure;Samples;Min_cycle;Max_cycle;Signal;HPM_P1;HPM_P2
2024/01/25 00:02:00;;;;;;;8.70;4.50;;;;;;;3.43;82.19;95595.20;110610;1274;22183;-78
2024/01/25 00:04:28;;;;;;;10.50;4.90;;;;;;;3.43;82.19;95593.63;110559;1274;22956;-77
2024/01/25 00:06:57;;;;;;;10.50;5.50;;;;;;;3.40;82.09;95588.05;110529;1274;22125;-78
2024/01/25 00:09:26;;;;;;;9.20;5.10;;;;;;;3.37;81.97;95582.98;110552;1274;22193;-78
2024/01/25 00:11:54;;;;;;;8.10;4.60;;;;;;;3.34;82.03;95579.82;110506;1274;22732;-78
2024/01/25 00:14:22;;;;;;;8.60;4.80;;;;;;;3.30;81.97;95575.97;110528;1274;22145;-78
2024/01/25 00:16:51;;;;;;;9.60;5.30;;;;;;;3.25;81.83;95566.01;110570;1274;22161;-79
2024/01/25 00:19:19;;;;;;;6.80;4.60;;;;;;;3.24;82.02;95573.30;110541;1274;22343;-78
2024/01/25 00:21:47;;;;;;;8.40;4.70;;;;;;;3.23;81.98;95573.12;110537;1274;22133;-78
2024/01/25 00:24:16;;;;;;;9.50;5.10;;;;;;;3.20;81.94;95575.70;110544;1274;22148;-78
2024/01/25 00:26:44;;;;;;;13.00;5.60;;;;;;;3.17;82.08;95575.48;110537;1275;22163;-79
2024/01/25 00:29:12;;;;;;;8.50;4.60;;;;;;;3.14;82.11;95577.02;110530;1274;23011;-77
2024/01/25 00:31:40;;;;;;;7.40;4.60;;;;;;;3.15;82.09;95581.04;110534;1275;22284;-78
2024/01/25 00:34:09;;;;;;;11.00;5.30;;;;;;;3.13;81.83;95583.27;110560;1270;22929;-78
2024/01/25 00:36:37;;;;;;;8.40;4.30;;;;;;;3.09;81.66;95585.66;110558;1274;22128;-79
2024/01/25 00:39:06;;;;;;;10.70;5.50;;;;;;;3.06;81.92;95585.64;110522;1274;22109;-77
2024/01/25 00:41:35;;;;;;;13.30;6.20;;;;;;;3.02;81.92;95585.09;110519;1274;22299;-77
2024/01/25 00:44:03;;;;;;;10.40;5.60;;;;;;;2.97;81.91;95588.50;110596;1274;22293;-78
2024/01/25 00:46:32;;;;;;;11.30;6.00;;;;;;;2.94;82.14;95574.75;110551;1274;22988;-77
2024/01/25 00:49:00;;;;;;;9.90;5.70;;;;;;;2.92;82.07;95568.30;110589;1275;23346;-77
2024/01/25 00:51:29;;;;;;;11.80;6.50;;;;;;;2.83;82.25;95561.23;110538;1271;23032;-78
2024/01/25 00:53:58;;;;;;;11.80;5.60;;;;;;;2.81;82.31;95555.65;110558;1275;22136;-77
2024/01/25 00:56:27;;;;;;;12.70;6.40;;;;;;;2.77;82.44;95556.33;110450;1274;22389;-78
2024/01/25 00:58:55;;;;;;;9.90;6.80;;;;;;;2.77;82.58;95557.37;110587;1275;22140;-77
2024/01/25 01:01:25;;;;;;;10.90;6.30;;;;;;;2.76;82.56;95557.00;110564;1274;22581;-78
2024/01/25 01:03:55;;;;;;;12.20;6.20;;;;;;;2.77;82.45;95556.15;110542;1274;22216;-78
2024/01/25 01:06:24;;;;;;;10.00;6.10;;;;;;;2.71;82.43;95546.02;110583;1274;22430;-78
2024/01/25 01:08:52;;;;;;;5.60;4.00;;;;;;;2.68;82.50;95549.98;110593;1274;22984;-77
2024/01/25 01:11:21;;;;;;;12.30;6.60;;;;;;;2.67;82.69;95552.05;110568;1274;22116;-78
2024/01/25 01:13:49;;;;;;;11.30;5.70;;;;;;;2.66;82.50;95563.16;110588;1275;22149;-77
2024/01/25 01:16:19;;;;;;;11.60;5.80;;;;;;;2.63;82.65;95561.03;110539;1274;22333;-78
2024/01/25 01:18:47;;;;;;;14.50;6.60;;;;;;;2.63;82.54;95553.04;110563;1274;22936;-78
2024/01/25 01:21:17;;;;;;;8.80;5.60;;;;;;;2.64;82.62;95553.39;110533;1274;22144;-78
2024/01/25 01:23:45;;;;;;;6.80;4.50;;;;;;;2.64;82.62;95542.80;110540;1274;22189;-77
2024/01/25 01:26:13;;;;;;;9.40;4.60;;;;;;;2.66;82.54;95529.10;110563;1274;22998;-78
2024/01/25 01:28:41;;;;;;;9.10;6.10;;;;;;;2.70;82.44;95531.92;110589;1274;22105;-78
2024/01/25 01:31:10;;;;;;;10.20;5.90;;;;;;;2.71;82.26;95534.89;110554;1274;22192;-78
2024/01/25 01:33:38;;;;;;;11.30;6.20;;;;;;;2.67;82.21;95541.11;110544;1274;22255;-78
2024/01/25 01:36:06;;;;;;;11.10;5.90;;;;;;;2.63;82.18;95541.41;110552;1274;22234;-78
2024/01/25 01:38:34;;;;;;;9.20;6.10;;;;;;;2.53;82.14;95547.89;110598;1274;23137;-78
2024/01/25 01:41:03;;;;;;;10.60;5.80;;;;;;;2.45;82.41;95546.23;110574;1275;22154;-78
2024/01/25 01:43:31;;;;;;;13.40;6.60;;;;;;;2.49;82.92;95549.06;110548;1274;22244;-78
2024/01/25 01:46:06;;;;;;;11.60;5.70;;;;;;;2.55;82.68;95547.23;110592;1275;22118;-78
2024/01/25 01:48:34;;;;;;;11.30;6.60;;;;;;;2.56;82.65;95545.66;110570;1274;22135;-77
2024/01/25 01:51:03;;;;;;;10.10;5.60;;;;;;;2.60;82.61;95549.35;110541;1274;22128;-77
2024/01/25 01:53:34;;;;;;;10.10;5.80;;;;;;;2.62;82.51;95545.22;110552;1274;22174;-78
2024/01/25 01:56:03;;;;;;;9.70;5.60;;;;;;;2.65;82.28;95544.03;110625;1275;22192;-77
2024/01/25 01:58:32;;;;;;;9.60;4.00;;;;;;;2.73;81.87;95543.08;110579;1274;22162;-77
2024/01/25 02:01:02;;;;;;;7.10;4.10;;;;;;;2.82;81.60;95539.17;110613;1264;22282;-77
2024/01/25 02:03:31;;;;;;;10.20;4.20;;;;;;;2.87;81.24;95542.00;110527;1275;22111;-77
2024/01/25 02:06:02;;;;;;;5.40;3.10;;;;;;;2.95;80.86;95541.39;110563;1275;22102;-76
2024/01/25 02:08:31;;;;;;;9.20;5.00;;;;;;;3.04;80.24;95536.62;110571;1274;22125;-78
2024/01/25 02:10:59;;;;;;;7.30;3.80;;;;;;;3.08;80.30;95546.91;110574;1271;22122;-77
2024/01/25 02:13:27;;;;;;;6.40;3.90;;;;;;;3.06;80.16;95540.80;110587;1275;22305;-78
2024/01/25 02:15:56;;;;;;;8.10;4.60;;;;;;;3.06;80.10;95540.80;110563;1274;22196;-76
2024/01/25 02:18:24;;;;;;;6.30;3.70;;;;;;;3.11;79.98;95533.19;110552;1274;22124;-78
2024/01/25 02:20:53;;;;;;;9.80;4.40;;;;;;;3.12;79.81;95532.67;110628;1274;22159;-78
2024/01/25 02:23:21;;;;;;;7.40;3.90;;;;;;;3.16;79.72;95530.46;110589;1275;22283;-77
2024/01/25 02:25:49;;;;;;;9.70;4.40;;;;;;;3.17;79.53;95524.22;110558;1274;22112;-78
2024/01/25 02:28:17;;;;;;;7.80;4.00;;;;;;;3.19;79.57;95518.50;110535;1275;23011;-76
2024/01/25 02:30:46;;;;;;;7.00;3.00;;;;;;;3.19;79.40;95512.59;110572;1274;22120;-78
2024/01/25 02:33:14;;;;;;;8.50;4.20;;;;;;;3.22;79.22;95502.52;110568;1274;22902;-77
2024/01/25 02:35:42;;;;;;;9.00;2.70;;;;;;;3.18;79.11;95503.73;110544;1275;22134;-77
2024/01/25 02:38:11;;;;;;;9.80;3.10;;;;;;;3.24;79.09;95502.02;110571;1275;22185;-78
2024/01/25 02:40:39;;;;;;;6.90;3.70;;;;;;;3.28;78.88;95498.59;110570;1274;22285;-78
2024/01/25 02:43:08;;;;;;;6.40;3.30;;;;;;;3.28;78.66;95498.23;110486;1274;22137;-79
2024/01/25 02:45:36;;;;;;;7.80;3.00;;;;;;;3.27;78.53;95501.36;110571;1275;22329;-78
2024/01/25 02:48:04;;;;;;;8.00;3.30;;;;;;;3.29;78.60;95497.02;110567;1274;22127;-78
2024/01/25 02:50:33;;;;;;;6.20;3.20;;;;;;;3.24;78.45;95506.71;110583;1274;22913;-77
2024/01/25 02:53:01;;;;;;;6.90;3.30;;;;;;;3.13;78.47;95511.15;110541;1275;22848;-78
2024/01/25 02:55:30;;;;;;;10.30;3.40;;;;;;;3.01;78.78;95516.09;110569;1271;22135;-78
2024/01/25 02:57:58;;;;;;;6.60;3.60;;;;;;;2.98;79.35;95510.32;110592;1275;22143;-78
2024/01/25 03:00:26;;;;;;;8.30;3.40;;;;;;;3.00;79.35;95511.56;110550;1274;22943;-78
2024/01/25 03:02:54;;;;;;;10.50;3.70;;;;;;;2.98;79.38;95515.71;110558;1275;22443;-78
2024/01/25 03:05:23;;;;;;;6.20;3.60;;;;;;;2.91;79.31;95515.45;110576;1274;22318;-78
2024/01/25 03:07:51;;;;;;;8.10;4.10;;;;;;;2.87;79.50;95516.11;110571;1274;22253;-78
2024/01/25 03:10:20;;;;;;;7.50;3.80;;;;;;;2.83;79.60;95510.01;110544;1274;22122;-78
2024/01/25 03:12:48;;;;;;;9.10;2.80;;;;;;;2.77;79.71;95511.68;110568;1274;22105;-77
2024/01/25 03:15:18;;;;;;;7.30;3.40;;;;;;;2.79;79.94;95514.14;110533;1274;22823;-78
2024/01/25 03:17:46;;;;;;;6.10;3.30;;;;;;;2.86;79.78;95511.06;110540;1274;22104;-77
2024/01/25 03:20:14;;;;;;;9.00;3.90;;;;;;;2.95;79.40;95505.77;110530;1275;22745;-79
2024/01/25 03:22:43;;;;;;;8.60;3.70;;;;;;;3.02;79.10;95512.79;110562;1275;22958;-77
2024/01/25 03:25:11;;;;;;;5.60;3.20;;;;;;;3.03;78.86;95513.31;110560;1274;22090;-78
2024/01/25 03:27:39;;;;;;;4.50;3.00;;;;;;;3.07;78.89;95512.30;110563;1275;22132;-77
2024/01/25 03:30:08;;;;;;;5.60;3.10;;;;;;;3.08;78.87;95508.33;110621;1274;22141;-77
2024/01/25 03:32:37;;;;;;;7.60;3.70;;;;;;;3.16;78.52;95517.09;110611;1275;22858;-78
2024/01/25 03:35:06;;;;;;;8.20;3.90;;;;;;;3.21;78.28;95507.05;110563;1274;22377;-78
2024/01/25 03:37:34;;;;;;;8.10;3.80;;;;;;;3.21;78.16;95507.75;110568;1274;22101;-77
2024/01/25 03:40:03;;;;;;;4.90;2.80;;;;;;;3.15;78.13;95512.38;110634;1259;22108;-76
2024/01/25 03:42:32;;;;;;;8.00;2.90;;;;;;;3.19;78.08;95511.90;110630;1275;22396;-78
2024/01/25 03:45:00;;;;;;;7.90;3.10;;;;;;;3.22;77.98;95512.96;110599;1274;22290;-77
2024/01/25 03:47:28;;;;;;;7.60;3.60;;;;;;;3.21;78.03;95513.81;110570;1263;22178;-77
2024/01/25 03:49:56;;;;;;;8.00;3.80;;;;;;;3.16;77.89;95509.95;110570;1274;22120;-77
2024/01/25 03:52:25;;;;;;;7.20;3.90;;;;;;;3.09;78.21;95506.59;110549;1275;22305;-78
2024/01/25 03:54:53;;;;;;;9.80;4.40;;;;;;;3.02;78.34;95507.92;110606;1274;22116;-77
2024/01/25 03:57:21;;;;;;;10.80;4.10;;;;;;;2.98;78.52;95512.05;110563;1274;22140;-77
2024/01/25 03:59:50;;;;;;;10.90;4.00;;;;;;;2.99;78.49;95509.80;110543;1274;22299;-78
2024/01/25 04:02:18;;;;;;;11.50;4.40;;;;;;;2.99;78.41;95501.46;110547;1275;22957;-78
2024/01/25 04:04:47;;;;;;;7.50;3.70;;;;;;;2.94;78.38;95501.77;110542;1274;22140;-78
2024/01/25 04:07:15;;;;;;;10.80;3.80;;;;;;;2.93;78.50;95500.02;110532;1274;22108;-78
2024/01/25 04:09:43;;;;;;;8.80;3.70;;;;;;;2.94;78.40;95493.08;110635;1275;22283;-78
2024/01/25 04:12:12;;;;;;;6.30;2.60;;;;;;;2.94;78.39;95499.67;110569;1274;22117;-78
2024/01/25 04:14:40;;;;;;;7.10;3.50;;;;;;;2.93;78.39;95504.02;110595;1274;22110;-76
2024/01/25 04:17:08;;;;;;;9.30;3.90;;;;;;;2.97;78.16;95507.36;110563;1263;22188;-76
2024/01/25 04:19:36;;;;;;;12.60;4.90;;;;;;;2.97;78.28;95516.56;110588;1275;22131;-78
2024/01/25 04:22:05;;;;;;;10.70;5.10;;;;;;;2.95;78.16;95520.71;110625;1274;23021;-77
2024/01/25 04:24:33;;;;;;;11.90;5.20;;;;;;;2.90;78.28;95517.36;110577;1275;22339;-78
2024/01/25 04:27:02;;;;;;;14.20;6.20;;;;;;;2.86;78.48;95522.88;110582;1275;22179;-77
2024/01/25 04:29:30;;;;;;;10.60;5.60;;;;;;;2.82;78.68;95516.94;110546;1274;22264;-77
2024/01/25 04:31:59;;;;;;;12.40;7.80;;;;;;;2.81;78.71;95512.40;110580;1275;22766;-76
2024/01/25 04:34:27;;;;;;;12.80;5.40;;;;;;;2.79;78.72;95517.60;110579;1274;22161;-76
2024/01/25 04:36:55;;;;;;;8.80;5.00;;;;;;;2.76;78.77;95519.14;110577;1274;22131;-78
2024/01/25 04:39:24;;;;;;;9.70;4.40;;;;;;;2.75;78.87;95513.91;110573;1275;22131;-77
2024/01/25 04:41:52;;;;;;;12.90;5.50;;;;;;;2.73;78.86;95517.02;110414;1275;22148;-77
2024/01/25 04:44:20;;;;;;;27.70;18.20;;;;;;;2.72;78.76;95519.44;110588;1275;22999;-77
2024/01/25 04:46:48;;;;;;;18.00;9.30;;;;;;;2.67;78.89;95526.34;110566;1275;22201;-76
2024/01/25 04:49:16;;;;;;;13.50;8.30;;;;;;;2.59;79.02;95523.30;110626;1275;22286;-77
2024/01/25 04:51:45;;;;;;;11.40;5.60;;;;;;;2.54;79.36;95524.64;110605;1275;22447;-77
2024/01/25 04:54:15;;;;;;;14.00;8.50;;;;;;;2.57;79.50;95524.50;110576;1275;22105;-76
2024/01/25 04:56:43;;;;;;;7.70;3.20;;;;;;;2.61;79.30;95521.06;110570;1275;22151;-77
2024/01/25 04:59:12;;;;;;;6.20;2.30;;;;;;;2.67;79.02;95520.44;110502;1275;22134;-76
2024/01/25 05:01:40;;;;;;;11.90;3.90;;;;;;;2.73;78.83;95522.07;110620;1275;22578;-77
2024/01/25 05:04:08;;;;;;;7.40;3.00;;;;;;;2.73;78.64;95520.49;110592;1275;22187;-76
2024/01/25 05:06:36;;;;;;;10.70;3.10;;;;;;;2.72;78.68;95521.18;110531;1275;22983;-76
2024/01/25 05:09:08;;;;;;;13.10;4.00;;;;;;;2.72;78.59;95528.83;110619;1275;22115;-77
2024/01/25 05:11:40;;;;;;;11.00;4.60;;;;;;;2.71;78.66;95532.98;110582;1275;22198;-76
2024/01/25 05:14:08;;;;;;;3.40;2.00;;;;;;;2.69;78.53;95529.31;110501;1275;22116;-76
2024/01/25 05:16:36;;;;;;;11.60;3.80;;;;;;;2.71;78.39;95523.60;110581;1275;22130;-77
2024/01/25 05:19:04;;;;;;;8.40;3.50;;;;;;;2.75;78.31;95515.13;110568;1275;22131;-77
2024/01/25 05:21:33;;;;;;;9.50;3.50;;;;;;;2.75;78.08;95513.74;110603;1275;22111;-76
2024/01/25 05:24:01;;;;;;;7.60;2.90;;;;;;;2.72;78.02;95508.85;110572;1275;22133;-78
2024/01/25 05:26:29;;;;;;;11.90;4.20;;;;;;;2.73;78.00;95507.48;110518;1275;23126;-76
2024/01/25 05:28:58;;;;;;;7.20;3.70;;;;;;;2.70;77.87;95511.95;110576;1275;23042;-76
2024/01/25 05:31:26;;;;;;;12.00;3.60;;;;;;;2.69;77.84;95509.17;110577;1275;22214;-76
2024/01/25 05:33:54;;;;;;;7.10;3.40;;;;;;;2.71;77.66;95518.39;110505;1275;22167;-76
2024/01/25 05:36:22;;;;;;;9.40;3.00;;;;;;;2.74;77.40;95512.52;110540;1275;22117;-76
2024/01/25 05:38:50;;;;;;;13.50;6.60;;;;;;;2.75;77.13;95510.80;110600;1275;22168;-76
2024/01/25 05:41:19;;;;;;;5.80;2.50;;;;;;;2.74;77.22;95523.46;110565;1271;22323;-76
2024/01/25 05:43:47;;;;;;;11.20;3.40;;;;;;;2.76;76.91;95526.26;110549;1275;22177;-76
2024/01/25 05:46:15;;;;;;;13.00;3.70;;;;;;;2.82;76.73;95520.94;110533;1275;22784;-76
2024/01/25 05:48:43;;;;;;;9.10;3.80;;;;;;;2.81;76.69;95520.23;110599;1274;22322;-77
2024/01/25 05:51:13;;;;;;;10.10;2.60;;;;;;;2.83;76.15;95516.09;110535;1275;22137;-76
2024/01/25 05:53:42;;;;;;;10.10;3.00;;;;;;;2.86;76.31;95512.98;110559;1275;22123;-76
2024/01/25 05:56:10;;;;;;;6.30;2.10;;;;;;;2.86;76.18;95512.46;110511;1274;22108;-75
2024/01/25 05:58:38;;;;;;;6.40;2.60;;;;;;;2.89;75.96;95504.33;110497;1275;22159;-75
2024/01/25 06:01:06;;;;;;;9.00;2.50;;;;;;;2.90;75.83;95506.95;110527;1275;22144;-76
2024/01/25 06:03:35;;;;;;;3.90;1.70;;;;;;;2.87;75.63;95511.59;110468;1275;22832;-76
2024/01/25 06:06:03;;;;;;;22.10;10.40;;;;;;;2.86;75.70;95513.33;110513;1274;22260;-77
2024/01/25 06:08:32;;;;;;;8.00;1.40;;;;;;;2.84;75.85;95518.52;110511;1273;22377;-79
2024/01/25 06:11:01;;;;;;;29.20;21.90;;;;;;;2.88;75.76;95514.56;110497;1273;22950;-77
2024/01/25 06:13:31;;;;;;;8.00;2.30;;;;;;;2.86;75.82;95520.80;110542;1275;22388;-77
2024/01/25 06:15:59;;;;;;;6.20;2.80;;;;;;;2.86;75.97;95519.93;110540;1271;22940;-77
2024/01/25 06:18:27;;;;;;;6.60;1.80;;;;;;;2.90;75.81;95519.27;110534;1275;22117;-75
2024/01/25 06:20:56;;;;;;;11.60;3.20;;;;;;;2.91;75.91;95513.20;110476;1275;23079;-80
2024/01/25 06:23:24;;;;;;;6.50;2.50;;;;;;;2.94;75.71;95505.42;110315;1275;22341;-78
2024/01/25 06:25:52;;;;;;;7.40;2.10;;;;;;;2.98;75.73;95512.05;110541;1275;22123;-77
2024/01/25 06:28:21;;;;;;;15.50;5.30;;;;;;;2.97;75.62;95514.83;110497;1275;22247;-76
2024/01/25 06:30:49;;;;;;;6.50;2.90;;;;;;;2.93;75.78;95515.31;110599;1275;22982;-78
2024/01/25 06:33:18;;;;;;;11.60;5.40;;;;;;;2.92;75.89;95519.46;110623;1275;22145;-78
2024/01/25 06:35:47;;;;;;;8.00;4.60;;;;;;;2.90;75.89;95520.31;110542;1275;22868;-80
2024/01/25 06:38:15;;;;;;;8.90;2.70;;;;;;;2.94;75.82;95510.65;110549;1275;22298;-79
2024/01/25 06:40:43;;;;;;;6.40;2.90;;;;;;;2.98;75.76;95511.73;110564;1275;22205;-78
2024/01/25 06:43:11;;;;;;;8.00;2.50;;;;;;;3.07;75.47;95508.15;110498;1275;23013;-79
2024/01/25 06:45:41;;;;;;;5.80;2.10;;;;;;;3.14;75.10;95514.98;110598;1275;22211;-78
2024/01/25 06:48:09;;;;;;;10.80;3.10;;;;;;;3.19;74.93;95513.46;110561;1275;22881;-78
2024/01/25 06:50:37;;;;;;;6.30;1.90;;;;;;;3.22;74.89;95516.27;110546;1275;22329;-78
2024/01/25 06:53:06;;;;;;;9.80;3.00;;;;;;;3.28;74.80;95514.23;110524;1275;22120;-78
2024/01/25 06:55:35;;;;;;;10.70;2.30;;;;;;;3.31;74.57;95518.08;110505;1275;22124;-78
2024/01/25 06:58:03;;;;;;;6.40;2.80;;;;;;;3.36;74.40;95514.47;110477;1275;22809;-76
2024/01/25 07:00:31;;;;;;;8.80;2.70;;;;;;;3.36;74.32;95513.77;110569;1270;22587;-77
2024/01/25 07:03:00;;;;;;;8.80;3.50;;;;;;;3.39;74.20;95517.27;110555;1275;22146;-77
2024/01/25 07:05:33;;;;;;;8.60;3.10;;;;;;;3.39;74.22;95515.36;110510;1275;22147;-77
2024/01/25 07:08:05;;;;;;;14.10;3.10;;;;;;;3.40;74.17;95518.15;110604;1275;22895;-77
2024/01/25 07:10:33;;;;;;;7.80;2.90;;;;;;;3.42;73.90;95510.86;110466;1275;22340;-76
2024/01/25 07:13:01;;;;;;;7.40;2.20;;;;;;;3.43;74.13;95508.44;110595;1275;22833;-78
2024/01/25 07:15:29;;;;;;;9.60;2.60;;;;;;;3.44;74.06;95511.91;110601;1275;22125;-77
2024/01/25 07:17:58;;;;;;;8.50;2.60;;;;;;;3.47;73.92;95507.77;110572;1275;22204;-78
2024/01/25 07:20:26;;;;;;;8.30;2.80;;;;;;;3.48;73.94;95506.73;110579;1275;22125;-77
2024/01/25 07:22:54;;;;;;;9.70;2.70;;;;;;;3.49;73.96;95508.83;110572;1275;22183;-80
2024/01/25 07:25:23;;;;;;;19.10;4.70;;;;;;;3.50;74.25;95513.88;110542;1274;22209;-78
2024/01/25 07:27:51;;;;;;;9.30;3.10;;;;;;;3.52;73.89;95520.67;110534;1274;22148;-81
2024/01/25 07:30:19;;;;;;;24.60;13.50;;;;;;;3.50;74.07;95511.96;110470;1274;22226;-79
2024/01/25 07:32:49;;;;;;;14.40;5.20;;;;;;;3.48;74.09;95507.77;110500;1274;22202;-78
2024/01/25 07:35:18;;;;;;;11.60;3.20;;;;;;;3.48;74.06;95506.55;110593;1263;23048;-79
2024/01/25 07:37:46;;;;;;;17.20;6.40;;;;;;;3.48;73.93;95505.70;110574;1274;22137;-81
2024/01/25 07:40:15;;;;;;;19.60;6.50;;;;;;;3.50;73.80;95510.74;110565;1274;22106;-79
2024/01/25 07:42:43;;;;;;;18.60;6.80;;;;;;;3.49;73.78;95516.66;110509;1274;22180;-78
2024/01/25 07:45:13;;;;;;;10.80;3.50;;;;;;;3.50;73.82;95507.61;110504;1274;22887;-79
2024/01/25 07:47:42;;;;;;;13.80;6.50;;;;;;;3.50;73.81;95506.75;110461;1275;22177;-79
2024/01/25 07:50:10;;;;;;;15.90;7.70;;;;;;;3.54;74.04;95512.17;110500;1274;22141;-78
2024/01/25 07:52:38;;;;;;;12.10;3.70;;;;;;;3.53;74.21;95514.41;110473;1274;22222;-78
2024/01/25 07:55:07;;;;;;;11.50;4.80;;;;;;;3.56;73.96;95515.84;110484;1274;22805;-79
2024/01/25 07:57:35;;;;;;;6.20;2.30;;;;;;;3.62;73.91;95523.02;110506;1263;22223;-78
2024/01/25 08:00:04;;;;;;;12.40;3.90;;;;;;;3.63;73.64;95528.58;110480;1275;22107;-81
2024/01/25 08:02:33;;;;;;;11.20;3.40;;;;;;;3.68;73.41;95521.14;110479;1274;23006;-79
2024/01/25 08:05:02;;;;;;;12.40;2.00;;;;;;;3.68;73.52;95519.40;110483;1274;22856;-79
2024/01/25 08:07:30;;;;;;;10.90;4.50;;;;;;;3.73;73.33;95514.91;110590;1275;22115;-79
2024/01/25 08:09:59;;;;;;;12.40;4.20;;;;;;;3.74;72.90;95518.73;110586;1274;22998;-79
2024/01/25 08:12:27;;;;;;;8.20;3.50;;;;;;;3.74;72.85;95515.43;110315;1273;23232;-80
2024/01/25 08:14:55;;;;;;;8.50;2.80;;;;;;;3.73;72.76;95525.34;110508;1274;22166;-80
2024/01/25 08:17:24;;;;;;;52.00;29.20;;;;;;;3.73;72.69;95520.64;110477;1274;22218;-80
2024/01/25 08:19:52;;;;;;;22.40;12.00;;;;;;;3.74;72.98;95521.69;110509;1274;22175;-79
2024/01/25 08:22:20;;;;;;;36.20;18.50;;;;;;;3.75;73.05;95523.09;110501;1274;22175;-79
2024/01/25 08:24:50;;;;;;;139.50;66.60;;;;;;;3.79;73.15;95525.73;110473;1274;22206;-82
2024/01/25 08:27:19;;;;;;;16.90;10.60;;;;;;;3.81;72.89;95526.44;110516;1274;22239;-79
2024/01/25 08:29:47;;;;;;;17.40;9.80;;;;;;;3.82;72.75;95528.02;110471;1274;22830;-80
2024/01/25 08:32:15;;;;;;;9.40;5.20;;;;;;;3.84;72.77;95532.55;110526;1275;23169;-79
2024/01/25 08:34:44;;;;;;;8.50;3.50;;;;;;;3.84;72.88;95527.85;110503;1274;22316;-81
2024/01/25 08:37:12;;;;;;;14.70;4.70;;;;;;;3.85;72.74;95524.20;110492;1273;22483;-78
2024/01/25 08:39:41;;;;;;;8.80;2.70;;;;;;;3.87;72.82;95521.44;110515;1274;23017;-80
2024/01/25 08:42:10;;;;;;;8.00;4.50;;;;;;;3.86;72.15;95520.38;110505;1274;22323;-78
2024/01/25 08:44:39;;;;;;;9.70;3.20;;;;;;;3.82;72.18;95520.86;110516;1274;22211;-78
2024/01/25 08:47:07;;;;;;;3.00;1.40;;;;;;;3.85;72.25;95519.50;110477;1274;22246;-80
2024/01/25 08:49:38;;;;;;;9.90;5.80;;;;;;;3.88;71.86;95519.34;110506;1274;22155;-80
2024/01/25 08:52:06;;;;;;;12.80;2.80;;;;;;;3.94;71.97;95515.73;110551;1275;22863;-78
2024/01/25 08:54:37;;;;;;;7.80;1.80;;;;;;;4.01;71.24;95517.86;110493;1274;22338;-79
2024/01/25 08:57:05;;;;;;;7.90;2.70;;;;;;;4.07;71.06;95515.45;110463;1274;22245;-79
2024/01/25 08:59:37;;;;;;;6.50;2.30;;;;;;;4.14;70.79;95515.14;110465;1274;22149;-79
2024/01/25 09:02:06;;;;;;;7.50;2.40;;;;;;;4.18;70.62;95513.25;110484;1275;22321;-79
2024/01/25 09:04:34;;;;;;;8.10;2.00;;;;;;;4.27;70.15;95521.30;110609;1274;22129;-79
2024/01/25 09:07:03;;;;;;;12.50;4.40;;;;;;;4.37;69.92;95512.28;110634;1272;22131;-78
2024/01/25 09:09:31;;;;;;;12.40;3.10;;;;;;;4.52;70.45;95509.73;110539;1267;22304;-79
2024/01/25 09:12:00;;;;;;;6.10;2.00;;;;;;;4.60;69.05;95512.38;110463;1269;23127;-79
2024/01/25 09:14:28;;;;;;;12.40;2.80;;;;;;;4.61;68.42;95520.55;110434;1273;23398;-77
2024/01/25 09:16:56;;;;;;;11.00;3.90;;;;;;;4.64;68.17;95522.30;110693;1273;22369;-79
2024/01/25 09:19:24;;;;;;;13.40;4.50;;;;;;;4.69;68.22;95525.10;110537;1273;22178;-79
2024/01/25 09:21:52;;;;;;;9.00;3.10;;;;;;;4.72;68.21;95516.05;110717;1270;22874;-80
2024/01/25 09:24:21;;;;;;;16.20;5.20;;;;;;;4.69;68.20;95520.40;110701;1273;22963;-78
2024/01/25 09:26:49;;;;;;;7.70;3.40;;;;;;;4.73;68.15;95516.58;110714;1273;22193;-80
2024/01/25 09:29:18;;;;;;;12.10;2.90;;;;;;;4.73;67.84;95516.59;110720;1273;22342;-81
2024/01/25 09:31:46;;;;;;;10.80;3.30;;;;;;;4.77;67.52;95517.29;110721;1273;22207;-79
2024/01/25 09:34:15;;;;;;;7.90;2.10;;;;;;;4.80;67.46;95521.14;110572;1260;22173;-80
2024/01/25 09:36:43;;;;;;;8.70;2.80;;;;;;;4.84;67.55;95519.22;110738;1273;23032;-79
2024/01/25 09:39:12;;;;;;;11.60;3.80;;;;;;;4.90;67.80;95518.20;110700;1273;23028;-80
2024/01/25 09:41:41;;;;;;;10.40;4.10;;;;;;;4.90;67.47;95515.40;110698;1273;23082;-79
2024/01/25 09:44:13;;;;;;;23.70;8.40;;;;;;;4.85;67.22;95513.83;110674;1273;22207;-82
2024/01/25 09:46:42;;;;;;;12.00;4.20;;;;;;;4.76;67.54;95519.73;110584;1273;22244;-81
2024/01/25 09:49:11;;;;;;;17.80;6.30;;;;;;;4.83;67.90;95526.02;110721;1273;22187;-79
2024/01/25 09:51:41;;;;;;;21.00;6.60;;;;;;;4.88;67.71;95527.59;110712;1273;22964;-78
2024/01/25 09:54:10;;;;;;;8.30;2.50;;;;;;;4.87;67.70;95537.36;110683;1273;22211;-79
2024/01/25 09:56:41;;;;;;;15.90;4.10;;;;;;;4.86;67.47;95535.09;110698;1273;22777;-80
2024/01/25 09:59:09;;;;;;;13.40;5.50;;;;;;;4.93;67.65;95531.61;110606;1273;22256;-78
2024/01/25 10:01:38;;;;;;;13.30;4.80;;;;;;;4.95;67.44;95523.26;110687;1273;22189;-77
2024/01/25 10:04:07;;;;;;;16.50;4.60;;;;;;;4.98;67.30;95523.26;110616;1273;22186;-80
2024/01/25 10:06:36;;;;;;;12.30;3.20;;;;;;;5.04;67.16;95524.84;110589;1273;22284;-79
2024/01/25 10:09:04;;;;;;;6.80;2.50;;;;;;;5.13;66.83;95513.00;110702;1273;22230;-78
2024/01/25 10:11:35;;;;;;;10.10;3.60;;;;;;;5.23;66.58;95510.57;110722;1266;22132;-80
2024/01/25 10:14:09;;;;;;;10.30;3.40;;;;;;;5.35;66.75;95502.20;110707;1273;22248;-79
2024/01/25 10:16:37;;;;;;;14.30;5.70;;;;;;;5.47;66.43;95510.92;110705;1273;22232;-80
2024/01/25 10:19:07;;;;;;;5.40;2.60;;;;;;;5.50;65.82;95506.91;110589;1273;22349;-79
2024/01/25 10:21:37;;;;;;;12.80;6.00;;;;;;;5.52;66.30;95502.89;110727;1273;23100;-79
2024/01/25 10:24:06;;;;;;;10.30;2.70;;;;;;;5.55;65.95;95502.70;110741;1273;22124;-78
2024/01/25 10:26:35;;;;;;;7.50;2.50;;;;;;;5.54;66.04;95494.69;110636;1273;22193;-79
2024/01/25 10:29:04;;;;;;;7.10;2.50;;;;;;;5.57;65.93;95489.10;110629;1273;22119;-79
2024/01/25 10:31:40;;;;;;;6.50;2.00;;;;;;;5.70;65.71;95494.85;110612;1273;22206;-80
2024/01/25 10:34:13;;;;;;;11.60;3.10;;;;;;;5.81;65.56;95492.05;110719;1273;22104;-80
2024/01/25 10:36:42;;;;;;;7.70;3.30;;;;;;;5.97;65.25;95493.43;110614;1273;22137;-81
2024/01/25 10:39:14;;;;;;;11.30;3.10;;;;;;;6.12;65.24;95492.35;110726;1273;22596;-81
2024/01/25 10:41:45;;;;;;;10.10;2.90;;;;;;;6.32;65.09;95492.10;110724;1273;22185;-80
2024/01/25 10:44:13;;;;;;;12.30;3.30;;;;;;;6.53;64.56;95495.52;110621;1273;22127;-80
2024/01/25 10:46:43;;;;;;;7.90;2.80;;;;;;;6.76;64.24;95491.73;110722;1273;22166;-80
2024/01/25 10:49:12;;;;;;;8.50;2.30;;;;;;;6.89;63.27;95494.98;110727;1273;22274;-80
2024/01/25 10:51:41;;;;;;;11.20;2.60;;;;;;;6.98;62.59;95494.22;110691;1273;22102;-80
2024/01/25 10:54:14;;;;;;;10.80;2.80;;;;;;;7.05;62.52;95502.58;110523;1263;158250;-80
2024/01/25 10:56:43;;;;;;;8.80;2.90;;;;;;;7.14;62.53;95500.58;110734;1273;22126;-80
2024/01/25 10:59:11;;;;;;;11.00;3.00;;;;;;;7.27;62.54;95493.15;110637;1273;22278;-80
2024/01/25 11:01:46;;;;;;;6.60;1.60;;;;;;;7.55;62.00;95491.86;110724;1273;22143;-79
2024/01/25 11:04:19;;;;;;;14.20;3.30;;;;;;;7.54;60.57;95482.26;110620;1273;22217;-80
2024/01/25 11:06:47;;;;;;;10.50;2.80;;;;;;;7.60;60.49;95477.14;110659;1273;22103;-82
2024/01/25 11:09:21;;;;;;;8.90;2.80;;;;;;;7.68;59.47;95472.16;110747;1273;22166;-80
2024/01/25 11:11:54;;;;;;;11.70;2.40;;;;;;;7.69;59.74;95456.91;110725;1273;22129;-81
2024/01/25 11:14:25;;;;;;;11.00;3.00;;;;;;;7.98;59.58;95455.57;110716;1273;22186;-80
2024/01/25 11:16:54;;;;;;;9.60;3.30;;;;;;;8.35;59.16;95443.58;110628;1273;23071;-80
2024/01/25 11:19:22;;;;;;;11.50;3.10;;;;;;;8.81;57.76;95444.39;110606;1273;22783;-80
2024/01/25 11:21:52;;;;;;;8.70;2.70;;;;;;;9.17;55.30;95437.91;110754;1273;22110;-80
2024/01/25 11:24:21;;;;;;;6.80;2.40;;;;;;;9.40;55.13;95425.05;111012;1262;22145;-82
2024/01/25 11:26:50;;;;;;;8.90;2.40;;;;;;;9.63;52.95;95418.89;110751;1273;22144;-80
2024/01/25 11:29:22;;;;;;;5.50;2.10;;;;;;;9.48;52.62;95407.56;110712;1273;22169;-80
2024/01/25 11:31:53;;;;;;;7.50;2.00;;;;;;;9.18;52.31;95412.43;110645;1273;22112;-81
2024/01/25 11:34:23;;;;;;;7.50;2.50;;;;;;;9.14;52.55;95412.68;110722;1273;22237;-80
2024/01/25 11:36:51;;;;;;;7.70;2.10;;;;;;;9.23;52.75;95413.42;110730;1273;22165;-80